Time;durP1;ratioP1;P1;durP2;ratioP2;P2;SDS_P1;SDS_P2;PMS_P1;PMS_P2;Temp;Humidity;BMP_temperature;BMP_pressure;BME280_temperature;BME280_humidity;BME280_pressure;Samples;Min_cycle;Max_cycle;Signal;HPM_P1;HPM_P2
2024/01/30 00:01:24;;;;;;;12.43;4.37;;;11.50;99.90;;;11.66;60.88;102364.38;6084480;22;107651;-49
2024/01/30 00:03:50;;;;;;;11.33;4.30;;;11.50;99.90;;;11.66;61.06;102363.50;6112676;22;97210;-46
2024/01/30 00:06:23;;;;;;;7.27;4.50;;;11.50;99.90;;;11.67;60.43;102366.13;6093506;22;98269;-53
2024/01/30 00:08:49;;;;;;;7.27;4.83;;;11.50;99.90;;;11.67;60.63;102355.56;6018402;22;99811;-49
2024/01/30 00:11:16;;;;;;;7.40;4.57;;;11.50;99.90;;;11.67;60.43;102352.03;6033195;22;99146;-50
2024/01/30 00:13:47;;;;;;;7.30;4.37;;;11.50;99.90;;;11.67;60.48;102352.03;6003179;22;97797;-50
2024/01/30 00:16:25;;;;;;;7.07;4.70;;;11.50;99.90;;;11.70;60.46;102354.63;6034445;22;97596;-51
2024/01/30 00:18:57;;;;;;;7.90;4.10;;;11.50;99.90;;;11.68;59.95;102346.72;6080377;22;99072;-51
2024/01/30 00:21:23;;;;;;;7.17;4.57;;;11.50;99.90;;;11.68;60.24;102348.50;5937655;22;106263;-46
2024/01/30 00:23:49;;;;;;;7.13;4.47;;;11.50;99.90;;;11.65;60.05;102356.47;6136254;22;97279;-50
2024/01/30 00:26:15;;;;;;;7.63;4.47;;;11.50;99.90;;;11.62;60.14;102352.97;5958247;22;115896;-52
2024/01/30 00:28:42;;;;;;;8.50;4.60;;;11.40;99.90;;;11.62;59.48;102352.97;6004358;22;115132;-48
2024/01/30 00:31:16;;;;;;;11.13;4.50;;;11.40;99.90;;;11.60;60.31;102351.25;5994802;22;102444;-47
2024/01/30 00:33:42;;;;;;;6.73;3.93;;;11.40;99.90;;;11.60;60.02;102346.84;6115657;22;97469;-49
2024/01/30 00:36:09;;;;;;;6.27;4.27;;;11.40;99.90;;;11.60;59.50;102346.84;6127554;22;97606;-47
2024/01/30 00:38:38;;;;;;;9.23;4.47;;;11.40;99.90;;;11.61;60.12;102339.78;6019723;22;98031;-50
2024/01/30 00:41:05;;;;;;;6.90;4.37;;;11.40;99.90;;;11.60;59.50;102349.50;6057964;22;104233;-49
2024/01/30 00:43:50;;;;;;;10.03;4.43;;;11.40;99.90;;;11.65;59.86;102341.47;5981514;22;98128;-51
2024/01/30 00:46:16;;;;;;;7.57;4.47;;;11.40;99.90;;;11.70;59.40;102344.06;6123907;22;97550;-49
2024/01/30 00:48:53;;;;;;;7.90;4.47;;;11.40;99.90;;;11.67;59.66;102346.75;5962737;22;106968;-49
2024/01/30 00:51:21;;;;;;;5.70;3.83;;;11.50;99.90;;;11.60;60.41;102341.56;6049193;22;98912;-52
2024/01/30 00:53:47;;;;;;;8.67;4.10;;;11.40;99.90;;;11.57;59.82;102338.97;6064759;22;107771;-50
2024/01/30 00:56:13;;;;;;;7.00;4.47;;;11.40;99.90;;;11.56;60.10;102339.81;5988981;22;98947;-47
2024/01/30 00:58:39;;;;;;;6.20;4.07;;;11.30;99.90;;;11.55;60.54;102339.84;6104491;22;99001;-47
2024/01/30 01:01:07;;;;;;;6.63;4.03;;;11.30;99.90;;;11.59;60.30;102339.81;6062083;22;99877;-49
2024/01/30 01:03:40;;;;;;;9.03;4.53;;;11.40;99.90;;;11.62;59.92;102331.84;6079606;22;107732;-51
2024/01/30 01:06:06;;;;;;;9.43;4.27;;;11.40;99.90;;;11.63;59.78;102338.00;6062706;22;97513;-51
2024/01/30 01:08:32;;;;;;;6.90;4.00;;;11.40;99.90;;;11.60;60.00;102330.97;6075388;22;109368;-49
2024/01/30 01:10:57;;;;;;;6.87;4.13;;;11.40;99.90;;;11.62;59.97;102336.25;6098183;22;110032;-52
2024/01/30 01:13:25;;;;;;;6.57;4.03;;;11.40;99.90;;;11.60;60.28;102341.56;6121450;22;114591;-45
2024/01/30 01:15:51;;;;;;;5.17;4.00;;;11.40;99.90;;;11.60;59.71;102343.31;6024466;22;97664;-52
2024/01/30 01:18:17;;;;;;;6.20;3.97;;;11.40;99.90;;;11.56;60.04;102342.47;5996998;22;101067;-48
2024/01/30 01:20:45;;;;;;;9.30;4.33;;;11.40;99.90;;;11.54;60.24;102344.25;6129696;22;124884;-50
2024/01/30 01:23:16;;;;;;;7.80;3.67;;;11.40;99.90;;;11.51;60.35;102346.94;6115277;22;104678;-49
2024/01/30 01:25:56;;;;;;;7.63;4.40;;;11.40;99.90;;;11.45;60.44;102344.41;5973107;22;97867;-49
2024/01/30 01:28:22;;;;;;;7.10;3.93;;;11.30;99.90;;;11.44;60.56;102341.78;6066229;22;98266;-47
2024/01/30 01:30:47;;;;;;;7.20;4.10;;;11.30;99.90;;;11.42;60.61;102341.75;5954886;22;98141;-48
2024/01/30 01:33:14;;;;;;;6.37;4.10;;;11.20;99.90;;;11.41;61.05;102342.66;6023303;22;116430;-48
2024/01/30 01:35:40;;;;;;;8.37;4.20;;;11.20;99.90;;;11.35;60.92;102348.03;5987594;22;98282;-49
2024/01/30 01:38:12;;;;;;;6.27;4.00;;;11.20;99.90;;;11.34;61.15;102341.00;6083204;22;99115;-49
2024/01/30 01:40:41;;;;;;;5.60;4.10;;;11.20;99.90;;;11.32;61.04;102358.66;6095220;22;97543;-48
2024/01/30 01:43:07;;;;;;;7.07;3.77;;;11.20;99.90;;;11.31;61.20;102343.69;6032162;22;97361;-49
2024/01/30 01:45:38;;;;;;;5.70;3.20;;;11.20;99.90;;;11.32;61.34;102342.78;6095899;22;114410;-46
2024/01/30 01:48:05;;;;;;;6.73;4.30;;;11.20;99.90;;;11.32;61.04;102343.66;6122851;22;99734;-46
2024/01/30 01:50:33;;;;;;;6.60;4.03;;;11.20;99.90;;;11.32;61.38;102338.38;6110127;22;99281;-46
2024/01/30 01:52:59;;;;;;;7.60;4.17;;;11.10;99.90;;;11.33;61.31;102340.13;5965598;22;97743;-47
2024/01/30 01:55:27;;;;;;;8.53;3.70;;;11.10;99.90;;;11.32;61.28;102337.50;6131352;22;97269;-50
2024/01/30 01:57:59;;;;;;;11.47;4.03;;;11.10;99.90;;;11.38;60.70;102331.25;6113149;22;103996;-52
2024/01/30 02:00:25;;;;;;;8.37;3.80;;;11.20;99.90;;;11.38;61.18;102328.63;6111974;22;130668;-46
2024/01/30 02:03:00;;;;;;;7.20;4.23;;;11.20;99.90;;;11.39;60.94;102328.59;6115312;22;99041;-47
2024/01/30 02:05:26;;;;;;;6.87;3.93;;;11.20;99.90;;;11.40;61.03;102325.06;6024814;22;101696;-45
2024/01/30 02:07:53;;;;;;;6.80;4.10;;;11.20;99.90;;;11.40;61.07;102330.34;6056180;22;127128;-50
2024/01/30 02:10:18;;;;;;;5.47;3.43;;;11.20;99.90;;;11.44;61.40;102321.50;5982274;22;98051;-46
2024/01/30 02:12:51;;;;;;;8.00;4.50;;;11.30;99.90;;;11.49;60.98;102330.25;5934553;22;99721;-50
2024/01/30 02:15:18;;;;;;;8.83;4.03;;;11.30;99.90;;;11.50;61.07;102324.06;6092013;22;97340;-49
2024/01/30 02:17:43;;;;;;;6.80;4.33;;;11.30;99.90;;;11.52;60.76;102330.19;6145046;22;99579;-48
2024/01/30 02:20:15;;;;;;;7.30;4.50;;;11.40;99.90;;;11.55;60.75;102322.22;6114896;22;127465;-45
2024/01/30 02:22:42;;;;;;;8.40;4.07;;;11.40;99.90;;;11.59;60.59;102321.31;5975613;22;97684;-47
2024/01/30 02:25:17;;;;;;;6.40;4.40;;;11.40;99.90;;;11.58;60.72;102321.34;6080056;22;118077;-49
2024/01/30 02:27:45;;;;;;;5.30;3.53;;;11.40;99.90;;;11.59;60.46;102326.59;6055286;22;127334;-47
2024/01/30 02:30:12;;;;;;;8.53;4.17;;;11.40;99.90;;;11.62;60.30;102323.91;6078826;22;97428;-47
2024/01/30 02:32:42;;;;;;;6.77;3.77;;;11.50;99.90;;;11.61;60.23;102311.59;6082676;22;97231;-47
2024/01/30 02:35:09;;;;;;;4.87;3.20;;;11.40;99.90;;;11.57;60.29;102316.91;6023050;22;111509;-43
2024/01/30 02:37:56;;;;;;;5.63;4.13;;;11.40;99.90;;;11.58;60.63;102309.00;5986914;22;103754;-49
2024/01/30 02:40:30;;;;;;;8.37;3.77;;;11.40;99.90;;;11.58;60.80;102309.00;6084382;22;98129;-50
2024/01/30 02:43:10;;;;;;;7.33;4.07;;;11.40;99.90;;;11.58;60.58;102302.84;6107453;22;97419;-50
2024/01/30 02:45:38;;;;;;;9.33;4.00;;;11.40;99.90;;;11.66;59.77;102310.63;6029300;22;97747;-49
2024/01/30 02:48:04;;;;;;;5.53;3.80;;;11.40;99.90;;;11.67;60.17;102304.44;6063907;22;124492;-47
2024/01/30 02:50:35;;;;;;;10.87;4.27;;;11.40;99.90;;;11.68;59.59;102301.78;6120404;22;98754;-50
2024/01/30 02:53:18;;;;;;;5.63;3.50;;;11.50;99.90;;;11.63;60.35;102296.56;6145862;22;121687;-48
2024/01/30 02:55:49;;;;;;;7.60;3.63;;;11.50;99.90;;;11.68;60.36;102299.13;6106475;22;97647;-43
2024/01/30 02:58:25;;;;;;;5.87;3.77;;;11.50;99.90;;;11.66;60.10;102298.28;6109434;22;98253;-48
2024/01/30 03:01:00;;;;;;;5.87;3.80;;;11.50;99.90;;;11.66;60.04;102298.28;6115958;22;97965;-46
2024/01/30 03:03:26;;;;;;;7.87;4.30;;;11.50;99.90;;;11.65;59.85;102296.53;6113633;22;97212;-52
2024/01/30 03:05:57;;;;;;;6.07;3.80;;;11.40;99.90;;;11.66;60.51;102294.78;6142741;22;97575;-51
2024/01/30 03:08:28;;;;;;;5.87;3.27;;;11.50;99.90;;;11.69;59.85;102289.44;6127489;22;98471;-47
2024/01/30 03:11:02;;;;;;;7.10;4.10;;;11.50;99.90;;;11.72;59.92;102289.41;6113987;22;99394;-49
2024/01/30 03:13:29;;;;;;;7.97;4.07;;;11.50;99.90;;;11.71;60.07;102287.63;5998047;22;102510;-47
2024/01/30 03:15:54;;;;;;;8.20;3.87;;;11.50;99.90;;;11.72;60.05;102289.41;5974369;22;98237;-44
2024/01/30 03:18:21;;;;;;;4.47;3.40;;;11.50;99.90;;;11.80;59.24;102283.13;6094974;22;125525;-51
2024/01/30 03:20:49;;;;;;;5.23;3.60;;;11.50;99.90;;;11.86;58.52;102287.44;6121450;22;98138;-45
2024/01/30 03:23:15;;;;;;;6.67;3.90;;;11.60;99.90;;;11.82;59.40;102289.28;5930257;22;111570;-48
2024/01/30 03:25:43;;;;;;;5.87;3.53;;;11.60;99.90;;;11.82;59.46;102283.97;6131921;22;97509;-49
2024/01/30 03:28:15;;;;;;;6.33;4.07;;;11.60;99.90;;;11.77;60.40;102287.56;6163151;22;134149;-47
2024/01/30 03:30:44;;;;;;;6.13;4.23;;;11.60;99.90;;;11.76;60.05;102281.41;6118557;22;106443;-50
2024/01/30 03:33:09;;;;;;;6.10;3.50;;;11.60;99.90;;;11.78;59.78;102284.03;6091102;22;116315;-50
2024/01/30 03:35:35;;;;;;;6.70;3.77;;;11.60;99.90;;;11.76;59.88;102275.25;6093466;22;118014;-43
2024/01/30 03:38:01;;;;;;;6.47;3.80;;;11.60;99.90;;;11.72;60.09;102278.84;6072872;22;129839;-48
2024/01/30 03:40:26;;;;;;;4.83;3.27;;;11.50;99.90;;;11.68;60.21;102279.75;6127313;22;97496;-48
2024/01/30 03:42:52;;;;;;;6.07;3.57;;;11.50;99.90;;;11.62;60.44;102273.69;6103643;22;111732;-47
2024/01/30 03:45:19;;;;;;;5.40;3.30;;;11.50;99.90;;;11.60;60.63;102275.47;6045000;22;117224;-49
2024/01/30 03:47:45;;;;;;;12.10;4.40;;;11.40;99.90;;;11.57;60.85;102264.06;6125046;22;99014;-47
2024/01/30 03:50:10;;;;;;;4.83;3.33;;;11.40;99.90;;;11.55;60.45;102272.00;6106896;22;124761;-46
2024/01/30 03:52:36;;;;;;;4.50;3.13;;;11.40;99.90;;;11.52;60.87;102266.75;6099768;22;97845;-49
2024/01/30 03:55:12;;;;;;;7.73;3.77;;;11.40;99.90;;;11.50;60.83;102273.84;6150705;22;118203;-44
2024/01/30 03:57:42;;;;;;;6.73;3.80;;;11.40;99.90;;;11.50;61.00;102268.56;6083965;22;103218;-44
2024/01/30 04:00:09;;;;;;;7.10;4.17;;;11.30;99.90;;;11.49;61.08;102272.09;6123574;22;124341;-50
2024/01/30 04:02:35;;;;;;;6.47;4.07;;;11.30;99.90;;;11.45;61.40;102264.25;6153498;22;101461;-45
2024/01/30 04:05:04;;;;;;;7.60;3.40;;;11.30;99.90;;;11.44;61.77;102267.78;6145490;22;97698;-45
2024/01/30 04:07:29;;;;;;;7.33;3.33;;;11.30;99.90;;;11.47;61.20;102265.97;6164353;22;106925;-48
2024/01/30 04:09:55;;;;;;;6.67;4.10;;;11.30;99.90;;;11.49;60.94;102256.25;6124867;22;100418;-46
2024/01/30 04:12:21;;;;;;;4.73;3.50;;;11.40;99.90;;;11.48;60.56;102265.06;6004809;22;116941;-48
2024/01/30 04:14:47;;;;;;;5.57;3.40;;;11.30;99.90;;;11.49;61.08;102258.88;6099057;22;101926;-47
2024/01/30 04:17:13;;;;;;;4.83;3.53;;;11.40;99.90;;;11.48;60.89;102259.78;6131607;22;99021;-49
2024/01/30 04:19:40;;;;;;;7.30;4.07;;;11.40;99.90;;;11.47;60.92;102255.41;6138698;22;97612;-48
2024/01/30 04:22:11;;;;;;;7.37;4.47;;;11.40;99.90;;;11.49;60.94;102260.66;6090759;22;97148;-47
2024/01/30 04:24:37;;;;;;;6.60;3.40;;;11.40;99.90;;;11.44;60.84;102258.09;6145204;22;106563;-45
2024/01/30 04:27:03;;;;;;;6.03;3.80;;;11.30;99.90;;;11.48;60.96;102259.78;6132659;22;100110;-45
2024/01/30 04:29:29;;;;;;;8.97;3.93;;;11.40;99.90;;;11.48;61.30;102249.22;6130760;22;106249;-48
2024/01/30 04:31:57;;;;;;;6.70;3.33;;;11.40;99.90;;;11.45;60.64;102254.56;6109724;22;99199;-48
2024/01/30 04:34:31;;;;;;;6.97;3.70;;;11.40;99.90;;;11.47;60.51;102250.13;6059324;22;112346;-47
2024/01/30 04:36:57;;;;;;;7.43;4.37;;;11.30;99.90;;;11.43;60.74;102256.34;6082791;22;101559;-47
2024/01/30 04:39:25;;;;;;;6.93;3.53;;;11.30;99.90;;;11.46;60.68;102256.28;6122957;22;114529;-51
2024/01/30 04:41:50;;;;;;;6.43;3.63;;;11.30;99.90;;;11.44;61.07;102263.38;6102093;22;112221;-51
2024/01/30 04:44:16;;;;;;;6.23;3.57;;;11.30;99.90;;;11.42;60.55;102265.13;6078784;22;117323;-48
2024/01/30 04:46:42;;;;;;;4.20;3.23;;;11.30;99.90;;;11.43;61.16;102264.28;6142785;22;97695;-48
2024/01/30 04:49:08;;;;;;;5.80;3.33;;;11.30;99.90;;;11.37;60.52;102269.63;6124393;22;99632;-47
2024/01/30 04:51:55;;;;;;;5.63;3.50;;;11.30;99.90;;;11.35;60.89;102271.41;6129152;22;111700;-45
2024/01/30 04:54:21;;;;;;;4.57;3.33;;;11.20;99.90;;;11.32;61.20;102258.25;6079139;22;97163;-48
2024/01/30 04:56:46;;;;;;;7.47;3.80;;;11.20;99.90;;;11.27;60.40;102265.34;6068092;22;122573;-51
2024/01/30 04:59:12;;;;;;;5.53;3.93;;;11.10;99.90;;;11.21;61.03;102265.44;6031663;22;125650;-45
2024/01/30 05:01:40;;;;;;;7.67;3.83;;;11.00;99.90;;;11.18;61.42;102265.47;6096722;22;116178;-45
2024/01/30 05:04:14;;;;;;;5.60;3.50;;;11.00;99.90;;;11.11;61.39;102269.94;6107676;22;116119;-51
2024/01/30 05:06:40;;;;;;;5.30;3.10;;;11.00;99.90;;;11.10;61.90;102262.06;6097112;22;103257;-47
2024/01/30 05:09:06;;;;;;;6.93;3.63;;;10.90;99.90;;;11.09;61.88;102270.88;6023656;22;130876;-45
2024/01/30 05:11:44;;;;;;;7.87;4.07;;;10.90;99.90;;;11.07;61.72;102256.81;6127490;22;115614;-48
2024/01/30 05:14:11;;;;;;;6.03;3.83;;;10.90;99.90;;;11.02;61.92;102267.44;6099841;22;97448;-44
2024/01/30 05:16:37;;;;;;;5.00;3.63;;;10.90;99.90;;;11.04;62.30;102260.38;6143841;22;99936;-48
2024/01/30 05:19:03;;;;;;;5.57;3.87;;;10.90;99.90;;;11.01;62.03;102263.94;6052120;22;116963;-51
2024/01/30 05:21:31;;;;;;;7.40;4.17;;;10.90;99.90;;;11.05;62.22;102263.88;6126523;22;116829;-46
2024/01/30 05:23:57;;;;;;;9.40;4.20;;;10.90;99.90;;;11.05;62.12;102259.47;6132986;22;112156;-46
2024/01/30 05:26:23;;;;;;;5.53;3.83;;;11.00;99.90;;;11.10;61.49;102252.34;6123406;22;125496;-50
2024/01/30 05:28:56;;;;;;;7.10;3.97;;;11.00;99.90;;;11.22;61.35;102251.34;6125114;22;97602;-45
2024/01/30 05:31:22;;;;;;;6.13;3.57;;;11.10;99.90;;;11.19;61.28;102259.31;6134843;22;97484;-45
2024/01/30 05:33:57;;;;;;;7.93;4.13;;;11.10;99.90;;;11.19;61.25;102254.03;6090511;22;97385;-42
2024/01/30 05:36:23;;;;;;;8.43;3.90;;;11.10;99.90;;;11.18;61.19;102254.91;6048396;22;99318;-50
2024/01/30 05:38:49;;;;;;;8.73;4.40;;;11.00;99.90;;;11.17;61.20;102255.81;6028720;22;103992;-48
2024/01/30 05:41:20;;;;;;;10.43;4.23;;;11.00;99.90;;;11.13;61.53;102251.44;6017917;22;102836;-45
2024/01/30 05:43:46;;;;;;;6.03;3.47;;;11.00;99.90;;;11.14;61.77;102255.81;6102251;22;97705;-48
2024/01/30 05:46:12;;;;;;;5.70;3.83;;;11.00;99.90;;;11.20;61.44;102240.78;6138866;22;117424;-48
2024/01/30 05:48:46;;;;;;;6.93;3.57;;;11.10;99.90;;;11.29;61.16;102250.38;6120515;22;126789;-49
2024/01/30 05:51:16;;;;;;;6.20;3.53;;;11.10;99.90;;;11.39;60.44;102241.41;6020223;22;97451;-50
2024/01/30 05:53:44;;;;;;;5.27;3.30;;;11.20;99.90;;;11.45;60.45;102233.41;6116648;22;117725;-48
2024/01/30 05:56:17;;;;;;;5.23;3.03;;;11.20;99.90;;;11.45;59.81;102245.75;6098011;22;99156;-47
2024/01/30 05:58:43;;;;;;;6.37;3.57;;;11.30;99.90;;;11.40;60.67;102237.88;6115936;22;118191;-44
2024/01/30 06:01:12;;;;;;;6.97;3.50;;;11.20;99.90;;;11.44;60.78;102242.22;6117290;22;118518;-49
2024/01/30 06:03:38;;;;;;;7.97;3.67;;;11.20;99.90;;;11.42;60.80;102249.28;6159347;22;117634;-50
2024/01/30 06:06:11;;;;;;;5.53;3.40;;;11.30;99.90;;;11.51;60.21;102241.22;6082788;22;99492;-45
2024/01/30 06:08:42;;;;;;;7.53;3.30;;;11.30;99.90;;;11.48;60.53;102243.94;6104728;22;102486;-49
2024/01/30 06:11:12;;;;;;;4.80;3.00;;;11.30;99.90;;;11.45;60.75;102243.97;6056786;22;98015;-50
2024/01/30 06:13:38;;;;;;;5.00;2.93;;;11.30;99.90;;;11.59;59.79;102244.66;6083368;22;98595;-50
2024/01/30 06:16:08;;;;;;;8.93;3.90;;;11.40;99.90;;;11.56;60.67;102246.44;6113326;22;98386;-49
2024/01/30 06:18:45;;;;;;;3.70;3.07;;;11.40;99.90;;;11.58;60.39;102248.19;6085326;22;102454;-46
2024/01/30 06:21:24;;;;;;;6.70;3.47;;;11.40;99.90;;;11.57;60.67;102243.81;6081347;22;121351;-48
2024/01/30 06:23:52;;;;;;;6.10;3.97;;;11.40;99.90;;;11.65;59.99;102248.97;6144320;22;104799;-50
2024/01/30 06:26:18;;;;;;;5.33;3.60;;;11.40;99.90;;;11.56;60.33;102241.16;6127532;22;97802;-44
2024/01/30 06:28:44;;;;;;;5.87;3.30;;;11.40;99.90;;;11.56;60.29;102249.09;6143048;22;98045;-51
2024/01/30 06:31:10;;;;;;;5.87;2.67;;;11.40;99.90;;;11.68;59.75;102245.41;6037683;22;110388;-48
2024/01/30 06:33:36;;;;;;;8.17;3.63;;;11.40;99.90;;;11.67;59.60;102243.66;6119043;22;97649;-42
2024/01/30 06:36:04;;;;;;;7.87;3.73;;;11.50;99.90;;;11.73;59.97;102233.00;6098790;22;101931;-47
2024/01/30 06:38:29;;;;;;;5.73;3.50;;;11.50;99.90;;;11.87;58.75;102231.06;6050474;22;103448;-47
2024/01/30 06:40:55;;;;;;;3.30;2.60;;;11.60;99.90;;;12.05;57.93;102236.03;6096627;22;116668;-48
2024/01/30 06:43:25;;;;;;;5.20;3.63;;;11.70;99.90;;;12.20;57.57;102230.47;6105303;22;101435;-46
2024/01/30 06:45:51;;;;;;;7.40;3.20;;;11.90;99.90;;;12.18;58.10;102229.63;5972324;22;102026;-48
2024/01/30 06:48:22;;;;;;;5.23;4.00;;;12.00;99.90;;;12.24;57.48;102230.41;6083647;22;99690;-46
2024/01/30 06:50:49;;;;;;;5.60;3.03;;;12.00;99.90;;;12.40;56.19;102232.75;6073865;22;117656;-45
2024/01/30 06:53:15;;;;;;;4.37;2.90;;;12.10;99.90;;;12.61;55.67;102220.91;6070116;22;97830;-49
2024/01/30 06:55:45;;;;;;;5.47;3.30;;;12.30;99.90;;;12.70;56.31;102225.13;6038517;22;99502;-48
2024/01/30 06:58:18;;;;;;;5.50;3.77;;;12.40;99.90;;;12.82;55.58;102225.75;6065971;22;126352;-45
2024/01/30 07:00:43;;;;;;;8.00;4.30;;;12.50;99.90;;;12.91;54.52;102221.19;5985799;22;97206;-47
2024/01/30 07:03:13;;;;;;;4.90;3.23;;;12.70;99.90;;;12.84;55.84;102228.38;6082644;22;108318;-42
2024/01/30 07:05:51;;;;;;;7.47;3.37;;;12.60;99.90;;;12.88;55.36;102239.81;6113443;22;119074;-50
2024/01/30 07:08:35;;;;;;;5.57;3.30;;;12.60;99.90;;;12.78;56.45;102234.69;6039778;22;111537;-46
2024/01/30 07:11:08;;;;;;;5.43;3.37;;;12.50;99.90;;;12.62;57.22;102238.53;6071413;22;98608;-48
2024/01/30 07:13:35;;;;;;;6.83;4.07;;;12.40;99.90;;;12.51;57.98;102237.84;6097992;22;97324;-49
2024/01/30 07:16:01;;;;;;;6.87;4.10;;;12.30;99.90;;;12.48;58.21;102245.84;5982283;22;103420;-49
2024/01/30 07:18:34;;;;;;;5.50;3.23;;;12.30;99.90;;;12.44;58.13;102247.69;6024964;22;97936;-48
2024/01/30 07:21:07;;;;;;;4.47;3.43;;;12.20;99.90;;;12.54;57.66;102247.50;6071834;22;109099;-47
2024/01/30 07:23:38;;;;;;;6.00;3.10;;;12.30;99.90;;;12.39;58.21;102262.75;6109354;22;96977;-47
2024/01/30 07:26:14;;;;;;;5.77;3.87;;;12.10;99.90;;;12.33;58.12;102251.44;6018316;22;102149;-53
2024/01/30 07:28:44;;;;;;;6.20;3.40;;;12.10;99.90;;;12.21;59.05;102263.97;5954055;22;104991;-45
2024/01/30 07:31:17;;;;;;;6.20;3.67;;;12.00;99.90;;;12.11;59.19;102261.50;6074660;22;97796;-49
2024/01/30 07:33:42;;;;;;;4.60;3.17;;;12.00;99.90;;;12.09;59.96;102264.16;6050554;22;97663;-53
2024/01/30 07:36:08;;;;;;;5.23;3.53;;;11.90;99.90;;;12.03;59.86;102269.56;6115525;22;97881;-47
2024/01/30 07:38:42;;;;;;;6.23;3.83;;;11.90;99.90;;;12.01;60.01;102275.78;5983704;22;115815;-51
2024/01/30 07:41:08;;;;;;;5.57;3.37;;;11.90;99.90;;;11.98;60.10;102268.75;6093910;22;123055;-46
2024/01/30 07:43:44;;;;;;;8.77;3.73;;;11.80;99.90;;;11.97;60.03;102274.94;6013800;22;115497;-52
2024/01/30 07:46:10;;;;;;;8.70;3.77;;;11.90;99.90;;;12.01;58.99;102279.31;5981681;22;108980;-48
2024/01/30 07:48:36;;;;;;;6.10;3.57;;;11.90;99.90;;;12.01;60.13;102276.66;6028594;22;129191;-50
2024/01/30 07:51:03;;;;;;;5.17;3.47;;;11.90;99.90;;;11.99;60.14;102273.13;6014231;22;97678;-45
2024/01/30 07:53:32;;;;;;;5.60;3.23;;;11.90;99.90;;;12.03;59.96;102269.56;5908674;22;98176;-47
2024/01/30 08:03:21;;;;;;;5.17;3.13;;;12.30;99.90;;;12.70;55.59;102280.72;5916258;22;98168;-50
2024/01/30 08:05:52;;;;;;;6.30;3.20;;;12.50;99.90;;;12.84;55.03;102280.47;5937731;22;97767;-50
2024/01/30 08:08:46;;;;;;;5.27;3.20;;;12.60;99.90;;;12.80;57.08;102284.97;5925376;22;98256;-50
2024/01/30 08:11:12;;;;;;;4.03;2.67;;;12.70;99.90;;;12.80;56.37;102291.13;6024229;22;104967;-47
2024/01/30 08:13:48;;;;;;;4.17;2.83;;;12.60;99.90;;;12.80;57.21;102291.13;6085337;22;97851;-51
2024/01/30 08:16:27;;;;;;;4.40;3.17;;;12.70;99.90;;;12.79;56.07;102284.09;6084077;22;113078;-49
2024/01/30 08:19:03;;;;;;;4.83;2.97;;;12.60;99.90;;;13.01;55.62;102288.94;6034351;22;103906;-51
2024/01/30 08:21:29;;;;;;;3.27;2.57;;;12.80;99.90;;;13.03;55.41;102287.16;5979938;22;127353;-50
2024/01/30 08:24:24;;;;;;;6.83;3.27;;;12.80;99.90;;;13.10;55.28;102278.19;5925628;22;99232;-47
2024/01/30 08:26:50;;;;;;;8.60;3.50;;;12.90;99.90;;;13.11;56.43;102277.28;5891226;22;99901;-47
2024/01/30 08:29:16;;;;;;;3.53;2.57;;;12.90;99.90;;;13.25;54.96;102277.91;5909458;22;102078;-47
2024/01/30 08:31:59;;;;;;;6.23;3.30;;;13.00;99.90;;;13.31;53.78;102261.88;5913647;22;114630;-50
2024/01/30 08:34:24;;;;;;;6.30;3.53;;;13.10;99.90;;;13.28;55.43;102272.53;5999042;22;101961;-48
2024/01/30 08:36:58;;;;;;;4.10;2.20;;;13.10;99.90;;;13.32;55.28;102263.63;6041733;22;99238;-49
2024/01/30 08:39:32;;;;;;;3.63;2.30;;;13.10;99.90;;;13.45;54.04;102268.63;6006046;22;127767;-49
2024/01/30 08:42:21;;;;;;;6.23;3.50;;;13.20;99.90;;;13.44;54.35;102280.16;6037763;22;126799;-50
2024/01/30 08:44:49;;;;;;;6.17;2.97;;;13.20;99.90;;;13.47;53.89;102282.75;5944290;22;99110;-50
2024/01/30 08:47:16;;;;;;;5.03;2.90;;;13.30;99.90;;;13.54;53.06;102287.00;6013605;22;97783;-50
2024/01/30 08:50:05;;;;;;;6.90;3.47;;;13.30;99.90;;;13.64;52.59;102293.84;6033785;22;102505;-48
2024/01/30 08:52:31;;;;;;;3.13;1.63;;;13.40;99.90;;;13.68;52.30;102298.16;5896987;22;99385;-48
2024/01/30 08:55:26;;;;;;;;;;;;;;;;;;;;;
2024/01/30 08:57:53;;;;;;;5.80;3.83;;;13.60;99.90;;;13.61;55.10;102301.88;5947335;22;120396;-47
2024/01/30 09:00:19;;;;;;;4.77;3.00;;;13.50;99.90;;;13.54;55.44;102302.91;6070777;22;98192;-45
2024/01/30 09:02:45;;;;;;;4.53;2.47;;;13.40;99.90;;;13.61;52.92;102291.28;6003067;22;97420;-48
2024/01/30 09:05:12;;;;;;;5.83;3.70;;;13.40;99.90;;;13.62;53.81;102298.31;6003796;22;103494;-49
2024/01/30 09:07:42;;;;;;;4.70;3.13;;;13.40;99.90;;;13.53;54.91;102317.06;5861675;22;100090;-46
2024/01/30 09:10:08;;;;;;;6.47;3.33;;;13.40;99.90;;;13.42;56.29;102319.06;5975893;22;103727;-46
2024/01/30 09:12:34;;;;;;;5.33;3.47;;;13.30;99.90;;;13.45;55.10;102316.34;5926066;22;101679;-45
2024/01/30 09:15:25;;;;;;;5.67;3.43;;;13.30;99.90;;;13.47;54.80;102314.56;6035723;22;99222;-45
2024/01/30 09:17:54;;;;;;;5.43;2.60;;;13.30;99.90;;;13.52;53.68;102323.28;6090206;22;97484;-47
2024/01/30 09:20:22;;;;;;;7.23;3.07;;;13.30;99.90;;;13.55;53.34;102309.94;6067604;22;98184;-52
2024/01/30 09:22:50;;;;;;;6.83;3.53;;;13.40;99.90;;;13.68;54.13;102314.06;6040952;22;100491;-47
2024/01/30 09:25:22;;;;;;;6.00;3.10;;;13.50;99.90;;;13.46;55.79;102323.41;5987472;22;100934;-44
2024/01/30 09:27:51;;;;;;;3.17;2.07;;;13.40;99.90;;;13.64;53.53;102325.66;6116095;22;99817;-48
2024/01/30 09:30:17;;;;;;;4.37;2.83;;;13.50;99.90;;;13.68;52.72;102324.69;6113777;22;99905;-43
2024/01/30 09:33:07;;;;;;;3.20;2.00;;;13.60;99.90;;;13.80;52.28;102335.03;6095901;22;113163;-44
2024/01/30 09:35:33;;;;;;;5.03;3.40;;;13.70;99.90;;;13.76;53.64;102336.00;6093366;22;100740;-48
2024/01/30 09:38:02;;;;;;;6.40;3.17;;;13.70;99.90;;;13.90;52.39;102344.53;6103215;22;97373;-51
2024/01/30 09:40:37;;;;;;;6.27;3.13;;;13.80;99.90;;;13.86;53.10;102342.84;6040213;22;98623;-43
2024/01/30 09:43:03;;;;;;;6.40;2.90;;;13.70;99.90;;;13.88;54.98;102345.44;6080481;22;103007;-47
2024/01/30 09:45:32;;;;;;;2.40;2.20;;;13.80;99.90;;;13.95;52.30;102345.28;6131115;22;97182;-45
2024/01/30 09:47:59;;;;;;;6.80;3.83;;;13.80;99.90;;;13.85;54.01;102343.75;6127963;22;116529;-47
2024/01/30 09:50:26;;;;;;;3.50;2.20;;;13.70;99.90;;;13.82;52.62;102343.81;6111632;22;126542;-49
2024/01/30 09:52:55;;;;;;;4.50;2.90;;;13.70;99.90;;;13.89;54.63;102337.47;6110964;22;97285;-50
2024/01/30 09:55:21;;;;;;;5.90;3.23;;;13.80;99.90;;;13.78;55.83;102336.84;6086738;22;107924;-48
2024/01/30 09:57:47;;;;;;;3.90;3.23;;;13.80;99.90;;;13.77;55.62;102335.09;6087967;22;97549;-49
2024/01/30 10:00:13;;;;;;;5.27;2.77;;;13.70;99.90;;;13.86;53.47;102349.91;6139218;22;99752;-46
2024/01/30 10:02:40;;;;;;;6.50;3.97;;;13.80;99.90;;;13.79;55.94;102354.50;6109401;22;99174;-46
2024/01/30 10:05:06;;;;;;;4.10;3.10;;;13.70;99.90;;;13.87;53.96;102341.91;6081532;22;105613;-44
2024/01/30 10:07:32;;;;;;;8.70;4.20;;;13.80;99.90;;;13.76;56.16;102357.22;6091195;22;98218;-45
2024/01/30 10:10:01;;;;;;;5.30;3.13;;;13.80;99.90;;;13.74;55.67;102353.72;6140598;22;111361;-45
2024/01/30 10:12:30;;;;;;;2.93;2.13;;;13.70;99.90;;;13.88;52.27;102351.63;6132015;22;127034;-48
2024/01/30 10:15:03;;;;;;;7.07;3.73;;;13.80;99.90;;;13.83;55.18;102353.53;6018403;22;114419;-47
2024/01/30 10:17:33;;;;;;;7.43;3.77;;;13.80;99.90;;;13.85;55.40;102349.03;6023925;22;104899;-49
2024/01/30 10:20:00;;;;;;;4.70;3.20;;;13.90;99.90;;;13.93;52.49;102340.94;5985199;22;99617;-45
2024/01/30 10:22:28;;;;;;;6.93;3.00;;;13.90;99.90;;;13.97;54.25;102348.78;6073969;22;119826;-49
2024/01/30 10:24:54;;;;;;;3.43;2.53;;;14.00;99.90;;;14.11;53.23;102350.25;6074040;22;97642;-47
2024/01/30 10:27:27;;;;;;;3.57;1.97;;;14.10;99.90;;;14.21;52.35;102349.13;6126180;22;116448;-49